Time;durP1;ratioP1;P1;durP2;ratioP2;P2;SDS_P1;SDS_P2;PMS_P1;PMS_P2;Temp;Humidity;BMP_temperature;BMP_pressure;BME280_temperature;BME280_humidity;BME280_pressure;Samples;Min_cycle;Max_cycle;Signal;HPM_P1;HPM_P2
2021/06/11 00:01:45;;;;;;;3.35;3.15;;;;;;;17.93;62.25;100299.09;10567750;28;20100;-70
2021/06/11 00:06:47;;;;;;;3.30;3.00;;;;;;;18.07;61.55;100293.84;10585155;28;20126;-70
2021/06/11 00:11:49;;;;;;;2.95;2.80;;;;;;;17.98;61.67;100292.56;10567359;28;20054;-70
2021/06/11 00:16:51;;;;;;;2.97;2.78;;;;;;;18.02;61.54;100287.94;10585927;28;20405;-69
2021/06/11 00:21:52;;;;;;;3.28;2.97;;;;;;;17.96;62.06;100285.63;10550777;28;20223;-70
2021/06/11 00:26:54;;;;;;;2.60;2.40;;;;;;;17.83;62.13;100286.31;10585563;28;20054;-70
2021/06/11 00:31:55;;;;;;;2.83;2.40;;;;;;;17.96;61.61;100285.63;10585364;28;20085;-71
2021/06/11 00:36:57;;;;;;;2.80;2.60;;;;;;;17.81;62.44;100282.91;10585678;28;20040;-71
2021/06/11 00:42:01;;;;;;;2.80;2.60;;;;;;;18.09;61.55;100279.50;10584525;28;20035;-71
2021/06/11 00:47:03;;;;;;;4.07;2.67;;;;;;;18.01;61.72;100286.19;10585079;28;20044;-71
2021/06/11 00:52:08;;;;;;;3.45;3.25;;;;;;;17.88;62.47;100286.94;10584860;28;20492;-71
2021/06/11 00:57:09;;;;;;;2.90;2.70;;;;;;;17.97;61.88;100284.66;10584669;28;20048;-71
2021/06/11 01:02:12;;;;;;;3.13;2.90;;;;;;;17.96;61.54;100289.13;10583790;28;20595;-71
2021/06/11 01:07:14;;;;;;;3.67;3.40;;;;;;;17.92;61.85;100278.75;10584357;28;20051;-71
2021/06/11 01:12:16;;;;;;;2.85;2.65;;;;;;;18.34;61.02;100284.22;10584735;28;20040;-71
2021/06/11 01:17:18;;;;;;;4.07;3.63;;;;;;;17.99;61.76;100275.66;10583421;28;20043;-71
2021/06/11 01:22:42;;;;;;;4.45;4.05;;;;;;;17.91;62.25;100272.59;10583094;28;20036;-71
2021/06/11 01:27:46;;;;;;;5.30;4.93;;;;;;;18.14;61.32;100277.41;10565780;28;20047;-71
2021/06/11 01:32:50;;;;;;;4.55;4.22;;;;;;;18.11;61.35;100268.78;10565181;28;20405;-71
2021/06/11 01:38:02;;;;;;;4.00;3.70;;;;;;;18.17;62.13;100272.88;10582734;28;20044;-71
2021/06/11 01:43:04;;;;;;;4.03;3.72;;;;;;;17.95;62.78;100271.47;10564794;28;20040;-71
2021/06/11 01:48:05;;;;;;;3.42;3.22;;;;;;;17.86;62.01;100267.53;10583307;28;20092;-70
2021/06/11 01:53:11;;;;;;;4.07;3.70;;;;;;;17.94;61.63;100271.56;10582698;28;20047;-70
2021/06/11 01:58:16;;;;;;;4.30;4.00;;;;;;;17.96;61.66;100277.66;10565204;28;20035;-71
2021/06/11 02:03:20;;;;;;;4.30;4.07;;;;;;;17.89;62.22;100275.34;10582207;28;20096;-71
2021/06/11 02:08:23;;;;;;;3.75;3.55;;;;;;;17.99;62.34;100267.69;10581934;28;20052;-71
2021/06/11 02:13:25;;;;;;;4.25;3.95;;;;;;;18.11;62.08;100271.44;10582087;28;20545;-70
2021/06/11 02:18:27;;;;;;;4.13;3.83;;;;;;;18.37;61.54;100256.53;10563655;28;20062;-71
2021/06/11 02:23:29;;;;;;;3.35;3.05;;;;;;;18.11;62.98;100266.13;10582059;28;20039;-71
2021/06/11 02:28:31;;;;;;;3.55;3.35;;;;;;;18.04;62.98;100262.94;10581578;28;20043;-71
2021/06/11 02:33:33;;;;;;;2.92;2.72;;;;;;;17.90;63.68;100253.13;10589940;28;20488;-70
2021/06/11 02:38:35;;;;;;;3.10;2.90;;;;;;;17.76;64.26;100262.84;10590073;28;20386;-71
2021/06/11 02:43:39;;;;;;;4.25;3.95;;;;;;;17.57;64.27;100270.97;10589764;28;20043;-71
2021/06/11 02:48:52;;;;;;;3.88;3.67;;;;;;;17.39;64.30;100260.44;10570464;22;20526;-75
2021/06/11 02:53:54;;;;;;;4.10;3.80;;;;;;;17.49;64.24;100259.94;10554249;28;20054;-75
2021/06/11 02:59:01;;;;;;;3.70;3.50;;;;;;;17.65;63.45;100264.28;10554183;28;20510;-75
2021/06/11 03:04:07;;;;;;;4.03;3.67;;;;;;;17.97;63.63;100266.06;10554550;28;20044;-75
2021/06/11 03:09:11;;;;;;;3.40;3.20;;;;;;;17.70;64.22;100260.50;10554208;28;20051;-75
2021/06/11 03:14:14;;;;;;;4.55;4.18;;;;;;;17.72;64.66;100270.13;10552312;28;20462;-76
2021/06/11 03:19:19;;;;;;;4.63;4.32;;;;;;;17.56;64.90;100272.78;10552736;28;20040;-75
2021/06/11 03:24:27;;;;;;;4.47;4.18;;;;;;;17.65;63.96;100274.91;10534026;28;20040;-76
2021/06/11 03:29:33;;;;;;;4.10;3.47;;;;;;;17.71;64.18;100272.84;10536342;28;20047;-75
2021/06/11 03:34:41;;;;;;;4.22;3.75;;;;;;;17.88;64.08;100268.31;10551493;28;20062;-75
2021/06/11 03:39:57;;;;;;;3.63;3.30;;;;;;;17.74;64.02;100270.91;10551433;28;20382;-76
2021/06/11 03:45:00;;;;;;;4.10;3.78;;;;;;;17.87;63.28;100271.06;10533189;28;20036;-75
2021/06/11 03:50:03;;;;;;;4.60;4.30;;;;;;;17.74;63.75;100272.72;10550721;28;20032;-75
2021/06/11 03:55:21;;;;;;;4.88;4.47;;;;;;;17.74;64.27;100272.72;10550656;28;20043;-75
2021/06/11 04:00:25;;;;;;;4.72;4.20;;;;;;;17.80;63.48;100275.03;10550909;28;20044;-76
2021/06/11 04:05:26;;;;;;;5.22;4.93;;;;;;;17.94;62.40;100274.22;10550387;28;20044;-75
2021/06/11 04:10:43;;;;;;;4.90;4.53;;;;;;;18.03;62.25;100285.19;10550343;28;20040;-76
2021/06/11 04:15:50;;;;;;;4.47;4.18;;;;;;;18.15;62.37;100279.16;10552426;28;20063;-75
2021/06/11 04:20:54;;;;;;;;;;;;;;;18.25;62.23;100283.91;10550839;28;20489;-74
2021/06/11 04:25:59;;;;;;;4.35;4.05;;;;;;;18.29;62.31;100280.13;10551171;28;20016;-75
2021/06/11 04:31:01;;;;;;;7.10;4.40;;;;;;;18.82;61.99;100273.38;10550756;28;20485;-75
2021/06/11 04:36:04;;;;;;;4.53;4.22;;;;;;;18.86;61.65;100273.09;10531045;28;20055;-75
2021/06/11 04:41:06;;;;;;;5.32;4.97;;;;;;;18.76;61.99;100274.59;10550359;28;20047;-75
2021/06/11 04:46:07;;;;;;;5.80;5.40;;;;;;;18.74;62.13;100271.19;10550479;28;20044;-75
2021/06/11 04:51:09;;;;;;;5.40;4.90;;;;;;;18.80;62.65;100273.44;10549930;28;20040;-75
2021/06/11 04:56:12;;;;;;;4.88;4.57;;;;;;;18.93;62.95;100280.69;10550329;28;20044;-76
2021/06/11 05:01:14;;;;;;;5.63;5.05;;;;;;;19.07;62.28;100270.84;10548047;28;20082;-76
2021/06/11 05:06:16;;;;;;;6.22;5.60;;;;;;;19.14;61.08;100276.66;10549049;28;20077;-76
2021/06/11 05:11:18;;;;;;;14.35;5.47;;;;;;;19.44;59.80;100270.34;10548970;28;20568;-76
2021/06/11 05:16:20;;;;;;;5.80;5.25;;;;;;;19.62;60.85;100283.34;10530768;28;20083;-75
2021/06/11 05:21:22;;;;;;;11.98;5.28;;;;;;;19.78;59.30;100277.84;10530255;28;20044;-75
2021/06/11 05:26:23;;;;;;;5.50;4.57;;;;;;;19.95;57.78;100274.06;10529757;28;20065;-75
2021/06/11 05:31:25;;;;;;;4.63;4.32;;;;;;;20.14;57.57;100277.22;10529803;28;20055;-75
2021/06/11 05:36:27;;;;;;;5.07;4.68;;;;;;;20.14;59.06;100277.22;10547518;28;20048;-75
2021/06/11 05:41:29;;;;;;;5.63;4.78;;;;;;;20.42;57.86;100278.84;10546375;28;20100;-75
2021/06/11 05:46:32;;;;;;;5.13;4.70;;;;;;;20.50;58.63;100267.69;10546067;28;20135;-76
2021/06/11 05:51:34;;;;;;;6.07;5.50;;;;;;;20.53;57.44;100266.59;10545772;28;20417;-75
2021/06/11 05:56:35;;;;;;;5.82;5.43;;;;;;;20.61;56.59;100285.63;10528138;28;20064;-75
2021/06/11 06:01:37;;;;;;;6.65;6.03;;;;;;;20.58;56.35;100270.66;10547119;28;20044;-75
2021/06/11 06:06:39;;;;;;;6.03;5.43;;;;;;;21.32;55.27;100262.78;10546366;28;20489;-75
2021/06/11 06:11:40;;;;;;;6.07;5.68;;;;;;;21.71;53.19;100272.38;10547244;28;20551;-75
2021/06/11 06:16:42;;;;;;;8.57;4.90;;;;;;;22.11;53.90;100270.22;10547992;28;20052;-75
2021/06/11 06:21:43;;;;;;;7.15;5.88;;;;;;;22.25;52.35;100279.06;10547025;28;20048;-75
2021/06/11 06:26:45;;;;;;;7.13;5.38;;;;;;;22.22;53.37;100273.94;10548848;28;20040;-75
2021/06/11 06:31:47;;;;;;;5.82;5.32;;;;;;;22.58;52.72;100279.16;10548858;28;20052;-75
2021/06/11 06:36:48;;;;;;;5.93;5.50;;;;;;;23.10;50.88;100280.41;10548501;28;20048;-75
2021/06/11 06:42:07;;;;;;;5.85;5.35;;;;;;;23.23;50.36;100277.59;10546414;28;20032;-75
2021/06/11 06:47:09;;;;;;;5.13;4.82;;;;;;;22.87;50.81;100276.00;10546875;28;20467;-75
2021/06/11 06:52:14;;;;;;;6.93;6.50;;;;;;;23.13;49.67;100282.00;10546638;28;20044;-76
2021/06/11 06:57:15;;;;;;;5.88;5.38;;;;;;;22.80;50.53;100278.31;10546438;28;20051;-75
2021/06/11 07:02:17;;;;;;;5.57;5.10;;;;;;;22.37;51.77;100283.50;10530358;28;20044;-76
2021/06/11 07:07:19;;;;;;;6.07;5.57;;;;;;;22.31;52.47;100290.19;10546292;28;20050;-75
2021/06/11 07:12:20;;;;;;;6.35;5.95;;;;;;;22.88;52.63;100291.09;10546936;28;20056;-76
2021/06/11 07:17:22;;;;;;;6.53;6.07;;;;;;;23.08;51.46;100281.53;10533864;28;20048;-76
2021/06/11 07:22:24;;;;;;;6.00;5.70;;;;;;;23.13;50.26;100282.00;10556041;28;20048;-75
2021/06/11 07:27:31;;;;;;;6.32;5.80;;;;;;;23.21;51.36;100281.38;10537351;28;20047;-76
2021/06/11 07:32:33;;;;;;;6.05;5.57;;;;;;;23.48;49.20;100276.47;10553507;28;20493;-75
2021/06/11 07:37:35;;;;;;;4.32;3.97;;;;;;;24.09;48.14;100270.56;10556140;28;20062;-75
2021/06/11 07:42:37;;;;;;;5.63;4.68;;;;;;;24.59;45.23;100263.56;10553929;28;20040;-76
2021/06/11 07:47:39;;;;;;;5.00;4.70;;;;;;;24.55;44.32;100264.81;10554765;28;20390;-75
2021/06/11 07:52:41;;;;;;;5.80;5.40;;;;;;;24.21;45.58;100255.22;10554837;28;20046;-76
2021/06/11 07:57:42;;;;;;;5.88;5.38;;;;;;;24.95;45.26;100250.56;10533068;28;20052;-76
2021/06/11 08:02:44;;;;;;;5.38;5.00;;;;;;;24.84;48.06;100253.34;10551377;28;20036;-75
2021/06/11 08:07:46;;;;;;;6.30;5.85;;;;;;;24.52;47.55;100264.22;10551397;28;20108;-76
2021/06/11 08:12:48;;;;;;;6.28;5.82;;;;;;;24.77;46.74;100260.25;10551737;28;20047;-75
2021/06/11 08:17:51;;;;;;;7.15;5.85;;;;;;;24.93;48.33;100268.69;10551457;28;20047;-75
2021/06/11 08:22:54;;;;;;;7.13;6.50;;;;;;;24.88;46.35;100265.50;10549896;28;20042;-74
2021/06/11 08:27:58;;;;;;;7.03;6.43;;;;;;;25.22;46.61;100263.41;10548801;28;20408;-74
2021/06/11 08:33:00;;;;;;;7.05;6.55;;;;;;;25.30;46.98;100251.97;10550268;28;20070;-75
2021/06/11 08:38:01;;;;;;;7.32;6.82;;;;;;;25.48;45.84;100249.47;10551093;28;20056;-75
2021/06/11 08:43:05;;;;;;;6.30;5.97;;;;;;;26.00;45.23;100252.78;10552680;28;20472;-75
2021/06/11 08:48:07;;;;;;;6.53;6.03;;;;;;;26.32;44.01;100244.38;10568044;22;20035;-70
2021/06/11 08:53:09;;;;;;;7.05;6.55;;;;;;;25.94;44.46;100243.41;10585236;28;20127;-70
2021/06/11 08:58:11;;;;;;;5.78;5.38;;;;;;;25.95;45.48;100238.91;10585964;28;20496;-70
2021/06/11 09:03:35;;;;;;;5.97;5.40;;;;;;;25.83;44.41;100238.19;10585564;28;20054;-71
2021/06/11 09:08:37;;;;;;;4.68;4.38;;;;;;;26.72;43.01;100237.91;10586082;28;20538;-69
2021/06/11 09:13:41;;;;;;;6.20;5.80;;;;;;;27.27;40.94;100228.03;10584296;28;20040;-71
2021/06/11 09:18:48;;;;;;;4.35;4.05;;;;;;;26.64;42.47;100225.16;10586269;28;20043;-70
2021/06/11 09:24:23;;;;;;;4.57;4.20;;;;;;;27.21;43.27;100222.38;10583961;28;20043;-70
2021/06/11 09:29:36;;;;;;;6.33;4.40;;;;;;;26.98;42.56;100227.31;10569751;28;20036;-71
2021/06/11 09:34:38;;;;;;;5.78;4.00;;;;;;;27.39;40.73;100231.34;10584133;28;20131;-69
2021/06/11 09:39:42;;;;;;;5.78;5.00;;;;;;;27.44;40.73;100226.34;10582605;28;20058;-69
2021/06/11 09:45:08;;;;;;;3.83;3.50;;;;;;;27.91;41.04;100231.56;10582209;28;20039;-69
2021/06/11 09:50:20;;;;;;;4.97;2.58;;;;;;;28.02;39.80;100225.88;10583951;28;20050;-70
2021/06/11 09:55:50;;;;;;;3.88;2.50;;;;;;;28.16;37.83;100233.47;10585419;28;20040;-70
2021/06/11 10:00:58;;;;;;;2.92;2.63;;;;;;;27.93;39.75;100234.94;10583984;28;20061;-70
2021/06/11 10:06:03;;;;;;;3.20;2.85;;;;;;;28.10;38.22;100227.81;10589865;28;20085;-69
2021/06/11 10:11:08;;;;;;;1.98;1.77;;;;;;;28.28;37.81;100223.22;10585960;28;20048;-69
2021/06/11 10:16:13;;;;;;;2.10;1.90;;;;;;;28.13;37.05;100233.75;10584141;28;20039;-69
2021/06/11 10:21:15;;;;;;;2.10;1.98;;;;;;;28.48;36.75;100221.19;10584284;28;20039;-69
2021/06/11 10:26:17;;;;;;;2.47;1.67;;;;;;;28.34;36.54;100221.75;10582160;28;20048;-69
2021/06/11 10:31:21;;;;;;;2.80;1.70;;;;;;;28.32;34.24;100221.06;10583339;28;20039;-69
2021/06/11 10:36:26;;;;;;;2.22;1.98;;;;;;;28.00;35.44;100214.41;10582239;28;20092;-68
2021/06/11 10:41:50;;;;;;;2.20;2.00;;;;;;;28.26;36.92;100210.88;10583575;28;20075;-69
2021/06/11 10:47:17;;;;;;;1.60;1.30;;;;;;;28.23;34.75;100225.53;10583730;28;20051;-69
2021/06/11 10:52:36;;;;;;;1.98;1.60;;;;;;;28.55;35.62;100216.81;10587512;28;20432;-69
2021/06/11 10:57:38;;;;;;;1.80;1.70;;;;;;;28.99;35.97;100205.91;10594409;28;20063;-68
2021/06/11 11:02:48;;;;;;;2.55;1.60;;;;;;;28.76;35.53;100202.91;10590179;28;20047;-68
2021/06/11 11:07:50;;;;;;;2.45;1.27;;;;;;;28.66;34.47;100210.31;10590344;28;20092;-69
2021/06/11 11:13:02;;;;;;;4.15;1.67;;;;;;;28.31;36.07;100203.13;10590440;28;20048;-69
2021/06/11 11:18:06;;;;;;;1.60;1.50;;;;;;;27.89;36.22;100198.44;10591071;28;20096;-69
2021/06/11 11:23:18;;;;;;;2.58;1.90;;;;;;;28.39;35.66;100185.16;10589498;28;20044;-69
2021/06/11 11:28:20;;;;;;;1.73;1.60;;;;;;;28.82;35.55;100194.16;10589202;28;20054;-69
2021/06/11 11:33:22;;;;;;;1.48;1.25;;;;;;;28.94;33.38;100189.28;10590571;27;20097;-69
2021/06/11 11:38:23;;;;;;;3.83;2.20;;;;;;;28.45;35.39;100190.91;10589612;28;20591;-69
2021/06/11 11:43:25;;;;;;;2.60;2.08;;;;;;;28.87;36.62;100186.41;10590641;28;20040;-68
2021/06/11 11:48:27;;;;;;;5.53;1.83;;;;;;;28.73;34.72;100180.75;10588661;28;20043;-68
2021/06/11 11:53:28;;;;;;;4.80;2.60;;;;;;;28.03;35.88;100188.94;10589272;28;20093;-69
2021/06/11 11:58:30;;;;;;;1.98;1.85;;;;;;;28.48;37.17;100182.50;10588903;28;20043;-69
2021/06/11 12:03:32;;;;;;;3.95;2.60;;;;;;;28.88;36.61;100171.00;10587988;28;20042;-69
2021/06/11 12:08:33;;;;;;;2.92;2.50;;;;;;;29.08;36.49;100160.78;10588444;28;20127;-68
2021/06/11 12:13:35;;;;;;;2.47;2.28;;;;;;;29.21;36.49;100154.88;10588102;28;20035;-69
2021/06/11 12:18:38;;;;;;;2.47;1.95;;;;;;;29.32;34.82;100163.56;10587577;28;20048;-69
2021/06/11 12:23:40;;;;;;;4.32;1.80;;;;;;;28.84;37.78;100156.97;10586331;28;20107;-69
2021/06/11 12:28:42;;;;;;;2.10;1.70;;;;;;;28.43;37.43;100147.84;10585777;28;20051;-69
2021/06/11 12:33:44;;;;;;;3.30;1.58;;;;;;;29.01;36.06;100144.38;10585914;28;20085;-69
2021/06/11 12:38:45;;;;;;;2.85;1.92;;;;;;;28.81;37.04;100138.34;10584234;28;20047;-70
2021/06/11 12:49:08;;;;;;;2.50;2.30;;;;;;;28.45;37.04;100136.84;10585093;28;20040;-70
2021/06/11 12:54:11;;;;;;;4.63;2.10;;;;;;;29.29;35.30;100144.06;10584655;28;20497;-70
2021/06/11 12:59:13;;;;;;;2.65;1.73;;;;;;;28.70;37.03;100135.94;10585234;28;20135;-70
2021/06/11 13:04:15;;;;;;;3.03;1.60;;;;;;;28.74;35.30;100126.50;10584039;28;20048;-70
2021/06/11 13:09:16;;;;;;;4.80;1.80;;;;;;;28.65;33.40;100136.44;10586134;28;20039;-70
2021/06/11 13:14:18;;;;;;;1.73;1.10;;;;;;;29.05;32.80;100129.50;10585645;28;20035;-70
2021/06/11 13:19:21;;;;;;;1.88;1.50;;;;;;;28.40;32.99;100121.94;10585291;28;20468;-70
2021/06/11 13:24:23;;;;;;;2.78;2.10;;;;;;;27.96;35.92;100123.00;10585914;28;20043;-69
2021/06/11 13:29:25;;;;;;;4.20;3.17;;;;;;;28.09;36.04;100113.47;10584356;28;20080;-69
2021/06/11 13:34:27;;;;;;;3.33;3.08;;;;;;;28.23;36.77;100105.78;10581195;28;20330;-70
2021/06/11 13:39:28;;;;;;;3.53;3.33;;;;;;;28.31;38.05;100108.53;10568107;28;20067;-70
2021/06/11 13:44:30;;;;;;;3.22;2.30;;;;;;;28.16;37.21;100113.69;10572224;28;20050;-69
2021/06/11 13:49:32;;;;;;;4.07;2.60;;;;;;;28.25;37.68;100107.31;10546275;28;20044;-69
2021/06/11 13:54:35;;;;;;;5.10;2.92;;;;;;;27.77;38.42;100115.97;10551727;28;20439;-69
2021/06/11 13:59:37;;;;;;;3.78;3.58;;;;;;;27.86;39.29;100107.75;10584825;28;20043;-70
2021/06/11 14:04:38;;;;;;;3.60;3.00;;;;;;;28.10;38.11;100101.66;10584708;28;20036;-70
2021/06/11 14:09:40;;;;;;;4.40;3.03;;;;;;;27.99;37.35;100110.03;10584238;28;20039;-70
2021/06/11 14:14:43;;;;;;;2.72;2.53;;;;;;;28.01;36.88;100099.06;10581634;28;20358;-68
2021/06/11 14:19:45;;;;;;;2.40;2.20;;;;;;;28.42;35.62;100108.25;10581186;28;20043;-69
2021/06/11 14:24:47;;;;;;;6.45;2.40;;;;;;;28.75;35.05;100101.13;10583633;28;20400;-69
2021/06/11 14:29:48;;;;;;;2.75;2.22;;;;;;;28.61;35.53;100099.91;10595824;28;20054;-69
2021/06/11 14:34:53;;;;;;;2.75;2.17;;;;;;;28.40;35.21;100107.59;10597532;28;20100;-70
2021/06/11 14:39:54;;;;;;;2.63;2.00;;;;;;;28.78;33.02;100102.69;10596906;27;20044;-69
2021/06/11 14:44:56;;;;;;;2.35;2.15;;;;;;;28.89;33.80;100097.78;10596620;27;20036;-69
2021/06/11 14:49:57;;;;;;;2.25;1.70;;;;;;;29.01;32.41;100103.78;10593882;22;20040;-77
2021/06/11 14:55:02;;;;;;;2.70;2.33;;;;;;;28.81;33.20;100091.50;10561102;28;20044;-75
2021/06/11 15:00:11;;;;;;;2.63;1.67;;;;;;;28.69;31.48;100095.53;10561826;28;20036;-75
2021/06/11 15:05:14;;;;;;;2.20;1.83;;;;;;;29.08;31.59;100087.69;10563178;28;20386;-74
2021/06/11 15:10:17;;;;;;;3.03;2.20;;;;;;;28.79;33.94;100085.44;10544020;28;20055;-73
2021/06/11 15:15:18;;;;;;;3.03;2.20;;;;;;;28.82;34.40;100088.66;10527222;28;20044;-74
2021/06/11 15:20:21;;;;;;;7.80;2.50;;;;;;;28.67;35.21;100087.59;10561947;28;20527;-74
2021/06/11 15:25:22;;;;;;;2.75;2.45;;;;;;;28.88;34.31;100081.72;10561420;28;20047;-74
2021/06/11 15:30:24;;;;;;;2.75;2.55;;;;;;;28.83;35.94;100075.97;10544600;28;20062;-75
2021/06/11 15:35:27;;;;;;;5.65;3.72;;;;;;;28.26;37.19;100068.47;10560562;28;20054;-75
2021/06/11 15:40:28;;;;;;;4.30;3.08;;;;;;;28.16;37.87;100067.75;10553254;28;20039;-76
2021/06/11 15:45:32;;;;;;;3.30;3.05;;;;;;;28.25;38.06;100060.53;10550572;28;20032;-75
2021/06/11 15:50:36;;;;;;;4.82;3.50;;;;;;;27.99;38.75;100049.75;10551178;28;20386;-75
2021/06/11 15:55:38;;;;;;;3.15;2.95;;;;;;;27.69;39.03;100059.16;10533867;28;20035;-75
2021/06/11 16:00:40;;;;;;;3.10;2.90;;;;;;;27.87;38.84;100055.41;10551744;28;20055;-76
2021/06/11 16:05:42;;;;;;;4.45;2.95;;;;;;;27.21;39.68;100057.75;10550762;28;20044;-76
2021/06/11 16:10:43;;;;;;;5.40;3.30;;;;;;;26.98;40.21;100050.09;10552093;28;20044;-76
2021/06/11 16:15:45;;;;;;;5.57;2.83;;;;;;;26.84;40.10;100056.03;10552894;28;20105;-75
2021/06/11 16:20:47;;;;;;;3.50;3.25;;;;;;;26.84;40.09;100064.97;10553808;28;20048;-75
2021/06/11 16:25:48;;;;;;;4.68;3.47;;;;;;;27.27;39.73;100049.91;10533770;28;20063;-73
2021/06/11 16:30:52;;;;;;;5.18;3.33;;;;;;;27.35;39.83;100055.34;10552459;28;20047;-75
2021/06/11 16:35:54;;;;;;;3.30;3.00;;;;;;;26.84;39.64;100054.19;10550496;28;20046;-74
2021/06/11 16:40:56;;;;;;;3.70;2.90;;;;;;;26.66;40.45;100058.72;10550470;28;20074;-75
2021/06/11 16:45:58;;;;;;;5.53;2.65;;;;;;;26.67;40.73;100063.09;10531763;28;20036;-74
2021/06/11 16:51:00;;;;;;;2.80;2.50;;;;;;;26.24;41.39;100064.56;10532528;28;20048;-75
2021/06/11 16:56:02;;;;;;;2.50;2.30;;;;;;;26.05;41.77;100059.25;10532342;28;20514;-73
2021/06/11 17:01:06;;;;;;;2.63;2.42;;;;;;;25.91;41.42;100061.44;10549477;28;20070;-74
2021/06/11 17:06:07;;;;;;;3.15;2.60;;;;;;;25.93;41.47;100066.66;10551324;28;20480;-75
2021/06/11 17:11:09;;;;;;;2.75;2.10;;;;;;;25.80;41.31;100058.91;10549632;28;20055;-74
2021/06/11 17:16:11;;;;;;;2.45;2.25;;;;;;;25.94;41.12;100062.97;10532884;28;20040;-75
2021/06/11 17:21:13;;;;;;;3.88;3.58;;;;;;;25.75;41.10;100060.31;10535104;28;20386;-76
2021/06/11 17:26:15;;;;;;;4.20;2.80;;;;;;;25.69;41.78;100067.13;10549220;28;20482;-74
2021/06/11 17:31:21;;;;;;;2.67;2.47;;;;;;;25.94;41.89;100057.59;10527726;28;20140;-75
2021/06/11 17:36:29;;;;;;;2.35;1.67;;;;;;;25.72;41.71;100057.91;10530445;28;20043;-75
2021/06/11 17:41:33;;;;;;;2.30;1.73;;;;;;;25.53;41.81;100058.78;10528067;28;20048;-75
2021/06/11 17:46:35;;;;;;;1.88;1.65;;;;;;;25.28;42.75;100062.91;10547348;28;20048;-76
2021/06/11 17:51:37;;;;;;;3.78;1.98;;;;;;;25.03;43.35;100062.47;10546946;28;20048;-76
2021/06/11 17:56:51;;;;;;;2.65;2.17;;;;;;;25.34;42.15;100068.59;10546787;28;20078;-76
2021/06/11 18:02:08;;;;;;;2.38;2.17;;;;;;;25.29;41.92;100065.50;10510916;28;20040;-76
2021/06/11 18:07:13;;;;;;;4.78;1.80;;;;;;;25.20;42.68;100076.25;10528524;28;20489;-77
2021/06/11 18:12:22;;;;;;;4.22;2.10;;;;;;;25.07;42.86;100068.44;10547942;28;20439;-77
2021/06/11 18:17:27;;;;;;;2.88;1.80;;;;;;;25.01;43.23;100069.81;10551751;28;20044;-77
2021/06/11 18:22:37;;;;;;;1.75;1.58;;;;;;;24.90;44.06;100067.28;10553496;28;20043;-78
2021/06/11 18:27:39;;;;;;;2.58;1.63;;;;;;;24.84;43.64;100070.53;10557964;28;20101;-76
2021/06/11 18:32:43;;;;;;;2.65;1.92;;;;;;;24.73;43.87;100078.72;10562219;28;20051;-76
2021/06/11 18:37:52;;;;;;;1.80;1.70;;;;;;;24.59;44.93;100082.63;10560962;28;20083;-76
2021/06/11 18:42:56;;;;;;;3.15;1.77;;;;;;;24.60;45.21;100081.66;10528884;28;20100;-77
2021/06/11 18:53:39;;;;;;;3.28;2.03;;;;;;;24.05;47.57;100081.97;10556870;28;20040;-77
2021/06/11 18:58:49;;;;;;;2.33;1.95;;;;;;;24.01;48.22;100090.44;10522283;28;20142;-77
2021/06/11 19:04:06;;;;;;;2.67;2.28;;;;;;;23.74;49.04;100085.63;10556910;28;20036;-78
2021/06/11 19:09:17;;;;;;;2.95;1.98;;;;;;;23.77;48.93;100088.03;10555815;28;20044;-77
2021/06/11 19:14:23;;;;;;;4.05;2.50;;;;;;;23.56;49.37;100099.59;10558717;28;20033;-77
2021/06/11 19:19:25;;;;;;;6.68;2.75;;;;;;;23.26;50.22;100096.81;10539985;28;20077;-76
2021/06/11 19:24:39;;;;;;;2.35;1.90;;;;;;;23.21;50.03;100101.72;10558913;28;20477;-77
2021/06/11 19:29:41;;;;;;;2.63;1.90;;;;;;;22.99;50.29;100106.16;10541449;28;20056;-77
2021/06/11 19:34:54;;;;;;;3.78;2.30;;;;;;;22.76;50.91;100115.22;10559466;28;20113;-77
2021/06/11 19:39:57;;;;;;;4.07;2.53;;;;;;;22.89;50.36;100110.56;10541354;28;20402;-77
2021/06/11 19:45:09;;;;;;;7.30;3.22;;;;;;;22.61;51.29;100104.75;10542425;28;20044;-77
2021/06/11 19:50:12;;;;;;;3.00;2.75;;;;;;;22.57;51.35;100105.97;10541768;28;20043;-77
2021/06/11 19:55:32;;;;;;;3.45;2.85;;;;;;;22.53;51.50;100111.69;10542225;28;20075;-77
2021/06/11 20:00:34;;;;;;;3.22;2.92;;;;;;;22.35;52.19;100122.06;10558138;28;20058;-76
2021/06/11 20:05:37;;;;;;;2.78;2.53;;;;;;;22.38;51.86;100125.34;10541081;28;20064;-77
2021/06/11 20:10:38;;;;;;;4.72;2.53;;;;;;;22.46;52.03;100108.66;10541255;28;20044;-76
2021/06/11 20:15:40;;;;;;;3.13;2.92;;;;;;;22.34;52.09;100117.69;10558905;28;20047;-77
2021/06/11 20:20:42;;;;;;;5.43;3.33;;;;;;;22.19;52.34;100121.59;10558385;28;20103;-77
2021/06/11 20:25:44;;;;;;;3.22;2.92;;;;;;;22.05;52.79;100119.97;10555258;28;20093;-76
2021/06/11 20:30:47;;;;;;;3.20;3.00;;;;;;;22.09;52.56;100121.41;10539488;28;20531;-77
2021/06/11 20:35:49;;;;;;;5.47;2.85;;;;;;;21.86;53.72;100121.34;10557852;28;20115;-77
2021/06/11 20:40:52;;;;;;;3.42;3.22;;;;;;;21.81;53.04;100123.53;10523713;28;20071;-78
2021/06/11 20:45:54;;;;;;;5.80;3.50;;;;;;;21.94;52.71;100136.84;10557402;28;20444;-77
2021/06/11 20:50:56;;;;;;;3.50;3.30;;;;;;;21.86;52.87;100125.88;10540144;22;20128;-70
2021/06/11 20:56:17;;;;;;;3.35;3.15;;;;;;;21.78;53.21;100128.28;10501664;28;20382;-70
2021/06/11 21:01:19;;;;;;;3.55;3.25;;;;;;;21.83;52.76;100132.31;10529847;28;20048;-70
2021/06/11 21:06:21;;;;;;;3.65;3.35;;;;;;;21.75;52.68;100133.88;10542477;28;20044;-70
2021/06/11 21:11:22;;;;;;;3.33;3.03;;;;;;;21.74;52.71;100124.16;10542176;28;20052;-70
2021/06/11 21:16:24;;;;;;;3.10;2.90;;;;;;;21.64;53.03;100140.03;10542727;28;20085;-68
2021/06/11 21:21:26;;;;;;;4.38;3.10;;;;;;;21.40;53.55;100145.44;10541400;28;20044;-69
2021/06/11 21:26:28;;;;;;;3.00;2.70;;;;;;;21.34;53.80;100141.41;10505941;28;20060;-69
2021/06/11 21:31:30;;;;;;;3.78;3.47;;;;;;;21.04;54.51;100139.16;10522725;28;20047;-69
2021/06/11 21:36:32;;;;;;;3.20;3.00;;;;;;;20.83;55.39;100138.03;10539773;28;20048;-69
2021/06/11 21:41:34;;;;;;;3.35;2.70;;;;;;;20.75;56.05;100143.94;10522665;28;20355;-69
2021/06/11 21:46:36;;;;;;;4.70;4.13;;;;;;;20.60;56.37;100139.69;10540046;28;20551;-69
2021/06/11 21:51:41;;;;;;;4.95;4.00;;;;;;;20.56;56.81;100138.22;10540023;28;20437;-69
2021/06/11 21:56:43;;;;;;;4.97;4.57;;;;;;;20.51;57.00;100146.56;10540245;28;20044;-69
2021/06/11 22:01:44;;;;;;;4.40;4.00;;;;;;;20.37;57.86;100149.31;10539780;28;20055;-69
2021/06/11 22:06:46;;;;;;;4.53;4.22;;;;;;;20.31;57.97;100153.25;10539418;28;20049;-69
2021/06/11 22:11:48;;;;;;;4.35;4.05;;;;;;;20.29;58.01;100136.50;10539465;28;20078;-69
2021/06/11 22:16:49;;;;;;;4.90;4.47;;;;;;;20.19;58.26;100139.91;10522506;28;20040;-68
2021/06/11 22:21:51;;;;;;;4.97;4.57;;;;;;;20.14;58.87;100130.44;10539403;28;20090;-69
2021/06/11 22:26:53;;;;;;;4.55;4.20;;;;;;;20.30;57.18;100126.69;10539092;28;20093;-69
2021/06/11 22:31:54;;;;;;;3.95;3.65;;;;;;;20.42;57.04;100121.31;10520621;28;20067;-69
2021/06/11 22:36:56;;;;;;;5.82;4.65;;;;;;;20.35;56.68;100128.06;10539201;28;20382;-68
2021/06/11 22:41:58;;;;;;;4.38;3.92;;;;;;;20.25;57.39;100132.34;10538898;28;20052;-68
2021/06/11 22:46:59;;;;;;;7.38;4.93;;;;;;;20.18;57.71;100139.06;10522775;28;20048;-68
2021/06/11 22:52:01;;;;;;;4.15;3.75;;;;;;;20.08;57.95;100127.34;10547409;28;20515;-68
2021/06/11 22:57:03;;;;;;;4.25;3.85;;;;;;;20.13;57.98;100127.84;10547394;28;20036;-69
2021/06/11 23:02:05;;;;;;;4.32;4.03;;;;;;;20.13;58.41;100133.19;10546568;28;20036;-69
2021/06/11 23:07:06;;;;;;;4.35;4.05;;;;;;;20.04;58.75;100136.50;10546989;28;20469;-69
2021/06/11 23:12:09;;;;;;;4.55;4.25;;;;;;;20.05;58.65;100143.53;10546604;28;20052;-69
2021/06/11 23:17:11;;;;;;;5.15;4.82;;;;;;;20.26;58.34;100122.53;10527974;28;20206;-69
2021/06/11 23:22:12;;;;;;;4.88;4.55;;;;;;;20.27;58.85;100125.06;10545912;28;20048;-69
2021/06/11 23:27:14;;;;;;;5.80;5.43;;;;;;;20.19;58.63;100115.91;10545539;28;20390;-69